Clarksville, Missouri
Current Conditions -  °F | °C
As of 2:15 PM on Sunday 25 Jan 2015 (Local Time) from KPPQ Reporting Station
Light Rain Light Rain  
Wind Chill: 28°   Ceiling: 900
Heat Index: 37°   Visibility: 10mi
Dew Point: 35°   Wind: 14mph
Humidity: 91%   Direction: 360°N
Pressure: 29.71"   Gusts: 17mph
Location:  39.37°N, 90.91°W
Report Text: KPPQ 252015Z AUTO 36012G15KT 10SM -RA OVC009 03/02 A2971 RMK AO2 T00280015
Loading
Personal Weather Stations






























Interactive Weather Map New forecast layout! Learn more

10-Day Weather Forecast

Advertisements
Track Severe Weather on mobile